KCSQ/CSQ METAR and TAF weather

Enter ICAO airport designator
Station Type Date Time Source
KCSQ METAR 2019/10/18 06:55 UTC NOAA

KCSQ 180655Z AUTO 15009KT 10SM CLR 09/06 A2985 RMK AO2


Station Type Date Time Source
KCSQ Decoded METAR 2019/10/18 06:55 UTC NOAA

Creston, IA, United States (KCSQ) 41-01N 094-22W
Oct 18, 2019 - 02:55 AM EDT / 2019.10.18 0655 UTC
Wind: from the SSE (150 degrees) at 10 MPH (9 KT):0
Visibility: 10 mile(s):0
Sky conditions: clear
Temperature: 48 F (9 C)
Dew Point: 42 F (6 C)
Relative Humidity: 81%
Pressure (altimeter): 29.85 in. Hg (1010 hPa)
ob: KCSQ 180655Z AUTO 15009KT 10SM CLR 09/06 A2985 RMK AO2
cycle: 7

Station Type Date Time Source
KCSQ TAF UTC NOAA

Error!

Example: see airport list